sensor_id;sensor_type;location;lat;lon;timestamp;temperature;humidity
52321;DHT22;38261;54.090;13.382;2022-12-07T00:00:37;3.30;99.90
52321;DHT22;38261;54.090;13.382;2022-12-07T00:01:59;3.30;99.90
52321;DHT22;38261;54.090;13.382;2022-12-07T00:03:21;3.30;99.90
52321;DHT22;38261;54.090;13.382;2022-12-07T00:04:43;3.30;99.90
52321;DHT22;38261;54.090;13.382;2022-12-07T00:06:07;3.30;99.90
52321;DHT22;38261;54.090;13.382;2022-12-07T00:07:29;3.30;99.90
52321;DHT22;38261;54.090;13.382;2022-12-07T00:08:51;3.30;99.90
52321;DHT22;38261;54.090;13.382;2022-12-07T00:10:13;3.30;99.90
52321;DHT22;38261;54.090;13.382;2022-12-07T00:11:35;3.30;99.90
52321;DHT22;38261;54.090;13.382;2022-12-07T00:12:57;3.30;99.90
52321;DHT22;38261;54.090;13.382;2022-12-07T00:14:20;3.30;99.90
52321;DHT22;38261;54.090;13.382;2022-12-07T00:15:43;3.30;99.90
52321;DHT22;38261;54.090;13.382;2022-12-07T00:17:05;3.30;99.90
52321;DHT22;38261;54.090;13.382;2022-12-07T00:18:27;3.30;99.90
52321;DHT22;38261;54.090;13.382;2022-12-07T00:19:49;3.30;99.90
52321;DHT22;38261;54.090;13.382;2022-12-07T00:21:20;3.30;99.90
52321;DHT22;38261;54.090;13.382;2022-12-07T00:22:43;3.30;99.90
52321;DHT22;38261;54.090;13.382;2022-12-07T00:24:05;3.30;99.90
52321;DHT22;38261;54.090;13.382;2022-12-07T00:25:28;3.30;99.90
52321;DHT22;38261;54.090;13.382;2022-12-07T00:26:51;3.30;99.90
52321;DHT22;38261;54.090;13.382;2022-12-07T00:28:13;3.30;99.90
52321;DHT22;38261;54.090;13.382;2022-12-07T00:29:35;3.30;99.90
52321;DHT22;38261;54.090;13.382;2022-12-07T00:31:09;3.30;99.90
52321;DHT22;38261;54.090;13.382;2022-12-07T00:32:32;3.30;99.90
52321;DHT22;38261;54.090;13.382;2022-12-07T00:33:54;3.30;99.90
52321;DHT22;38261;54.090;13.382;2022-12-07T00:35:16;3.40;99.90
52321;DHT22;38261;54.090;13.382;2022-12-07T00:36:38;3.40;99.90
52321;DHT22;38261;54.090;13.382;2022-12-07T00:38:00;3.40;99.90
52321;DHT22;38261;54.090;13.382;2022-12-07T00:39:22;3.40;99.90
52321;DHT22;38261;54.090;13.382;2022-12-07T00:40:54;3.40;99.90
52321;DHT22;38261;54.090;13.382;2022-12-07T00:42:16;3.40;99.90
52321;DHT22;38261;54.090;13.382;2022-12-07T00:43:39;3.40;99.90
52321;DHT22;38261;54.090;13.382;2022-12-07T00:45:01;3.40;99.90
52321;DHT22;38261;54.090;13.382;2022-12-07T00:46:24;3.40;99.90
52321;DHT22;38261;54.090;13.382;2022-12-07T00:47:46;3.30;99.90
52321;DHT22;38261;54.090;13.382;2022-12-07T00:49:08;3.30;99.90
52321;DHT22;38261;54.090;13.382;2022-12-07T00:50:30;3.30;99.90
52321;DHT22;38261;54.090;13.382;2022-12-07T00:51:52;3.30;99.90
52321;DHT22;38261;54.090;13.382;2022-12-07T00:53:15;3.30;99.90
52321;DHT22;38261;54.090;13.382;2022-12-07T00:54:37;3.30;99.90
52321;DHT22;38261;54.090;13.382;2022-12-07T00:56:05;3.30;99.90
52321;DHT22;38261;54.090;13.382;2022-12-07T00:57:27;3.30;99.90
52321;DHT22;38261;54.090;13.382;2022-12-07T00:59:00;3.30;99.90
52321;DHT22;38261;54.090;13.382;2022-12-07T01:00:22;3.30;99.90
52321;DHT22;38261;54.090;13.382;2022-12-07T01:01:44;3.30;99.90
52321;DHT22;38261;54.090;13.382;2022-12-07T01:03:09;3.30;99.90
52321;DHT22;38261;54.090;13.382;2022-12-07T01:04:33;3.30;99.90
52321;DHT22;38261;54.090;13.382;2022-12-07T01:05:56;3.30;99.90
52321;DHT22;38261;54.090;13.382;2022-12-07T01:07:18;3.30;99.90
52321;DHT22;38261;54.090;13.382;2022-12-07T01:08:40;3.30;99.90
52321;DHT22;38261;54.090;13.382;2022-12-07T01:10:03;3.30;99.90
52321;DHT22;38261;54.090;13.382;2022-12-07T01:11:28;3.30;99.90
52321;DHT22;38261;54.090;13.382;2022-12-07T01:12:50;3.30;99.90
52321;DHT22;38261;54.090;13.382;2022-12-07T01:14:12;3.30;99.90
52321;DHT22;38261;54.090;13.382;2022-12-07T01:15:34;3.30;99.90
52321;DHT22;38261;54.090;13.382;2022-12-07T01:17:00;3.20;99.90
52321;DHT22;38261;54.090;13.382;2022-12-07T01:18:22;3.20;99.90
52321;DHT22;38261;54.090;13.382;2022-12-07T01:19:44;3.20;99.90
52321;DHT22;38261;54.090;13.382;2022-12-07T01:21:10;3.20;99.90
52321;DHT22;38261;54.090;13.382;2022-12-07T01:22:37;3.20;99.90
52321;DHT22;38261;54.090;13.382;2022-12-07T01:24:00;3.20;99.90
52321;DHT22;38261;54.090;13.382;2022-12-07T01:25:22;3.20;99.90
52321;DHT22;38261;54.090;13.382;2022-12-07T01:26:44;3.20;99.90
52321;DHT22;38261;54.090;13.382;2022-12-07T01:28:06;3.20;99.90
52321;DHT22;38261;54.090;13.382;2022-12-07T01:29:28;3.20;99.90
52321;DHT22;38261;54.090;13.382;2022-12-07T01:31:02;3.20;99.90
52321;DHT22;38261;54.090;13.382;2022-12-07T01:32:24;3.20;99.90
52321;DHT22;38261;54.090;13.382;2022-12-07T01:33:49;3.20;99.90
52321;DHT22;38261;54.090;13.382;2022-12-07T01:35:12;3.20;99.90
52321;DHT22;38261;54.090;13.382;2022-12-07T01:36:35;3.20;99.90
52321;DHT22;38261;54.090;13.382;2022-12-07T01:37:58;3.20;99.90
52321;DHT22;38261;54.090;13.382;2022-12-07T01:39:20;3.20;99.90
52321;DHT22;38261;54.090;13.382;2022-12-07T01:40:42;3.20;99.90
52321;DHT22;38261;54.090;13.382;2022-12-07T01:42:04;3.20;99.90
52321;DHT22;38261;54.090;13.382;2022-12-07T01:43:28;3.20;99.90
52321;DHT22;38261;54.090;13.382;2022-12-07T01:48:16;3.20;99.90
52321;DHT22;38261;54.090;13.382;2022-12-07T01:49:46;3.20;99.90
52321;DHT22;38261;54.090;13.382;2022-12-07T01:51:12;3.20;99.90
52321;DHT22;38261;54.090;13.382;2022-12-07T01:52:36;3.20;99.90
52321;DHT22;38261;54.090;13.382;2022-12-07T01:54:00;3.20;99.90
52321;DHT22;38261;54.090;13.382;2022-12-07T01:55:23;3.20;99.90
52321;DHT22;38261;54.090;13.382;2022-12-07T01:56:51;3.20;99.90
52321;DHT22;38261;54.090;13.382;2022-12-07T01:58:14;3.20;99.90
52321;DHT22;38261;54.090;13.382;2022-12-07T01:59:38;3.20;99.90
52321;DHT22;38261;54.090;13.382;2022-12-07T02:01:01;3.20;99.90
52321;DHT22;38261;54.090;13.382;2022-12-07T02:02:30;3.20;99.90
52321;DHT22;38261;54.090;13.382;2022-12-07T02:03:55;3.20;99.90
52321;DHT22;38261;54.090;13.382;2022-12-07T02:05:18;3.20;99.90
52321;DHT22;38261;54.090;13.382;2022-12-07T02:06:41;3.20;99.90
52321;DHT22;38261;54.090;13.382;2022-12-07T02:08:04;3.10;99.90
52321;DHT22;38261;54.090;13.382;2022-12-07T02:09:27;3.20;99.90
52321;DHT22;38261;54.090;13.382;2022-12-07T02:10:49;3.10;99.90
52321;DHT22;38261;54.090;13.382;2022-12-07T02:12:11;3.10;99.90
52321;DHT22;38261;54.090;13.382;2022-12-07T02:13:35;3.10;99.90
52321;DHT22;38261;54.090;13.382;2022-12-07T02:14:58;3.10;99.90
52321;DHT22;38261;54.090;13.382;2022-12-07T02:20:29;3.20;99.90
52321;DHT22;38261;54.090;13.382;2022-12-07T02:22:11;3.10;99.90
52321;DHT22;38261;54.090;13.382;2022-12-07T02:23:47;3.10;99.90
52321;DHT22;38261;54.090;13.382;2022-12-07T02:27:06;3.10;99.90
52321;DHT22;38261;54.090;13.382;2022-12-07T02:28:46;3.10;99.90
52321;DHT22;38261;54.090;13.382;2022-12-07T02:30:14;3.10;99.90
52321;DHT22;38261;54.090;13.382;2022-12-07T02:31:44;3.10;99.90
52321;DHT22;38261;54.090;13.382;2022-12-07T02:33:14;3.00;99.90
52321;DHT22;38261;54.090;13.382;2022-12-07T02:36:43;3.00;99.90
52321;DHT22;38261;54.090;13.382;2022-12-07T02:38:31;3.00;99.90
52321;DHT22;38261;54.090;13.382;2022-12-07T02:41:47;2.90;99.90
52321;DHT22;38261;54.090;13.382;2022-12-07T02:44:41;2.90;99.90
52321;DHT22;38261;54.090;13.382;2022-12-07T02:46:11;2.80;99.90
52321;DHT22;38261;54.090;13.382;2022-12-07T02:47:36;2.80;99.90
52321;DHT22;38261;54.090;13.382;2022-12-07T02:48:58;2.80;99.90
52321;DHT22;38261;54.090;13.382;2022-12-07T02:50:21;2.80;99.90
52321;DHT22;38261;54.090;13.382;2022-12-07T02:51:46;2.80;99.90
52321;DHT22;38261;54.090;13.382;2022-12-07T02:54:56;2.80;99.90
52321;DHT22;38261;54.090;13.382;2022-12-07T03:01:39;2.80;99.90
52321;DHT22;38261;54.090;13.382;2022-12-07T03:03:08;2.80;99.90
52321;DHT22;38261;54.090;13.382;2022-12-07T03:06:18;2.80;99.90
52321;DHT22;38261;54.090;13.382;2022-12-07T03:09:53;2.80;99.90
52321;DHT22;38261;54.090;13.382;2022-12-07T03:11:25;2.80;99.90
52321;DHT22;38261;54.090;13.382;2022-12-07T03:14:36;2.70;99.90
52321;DHT22;38261;54.090;13.382;2022-12-07T03:17:42;2.70;99.90
52321;DHT22;38261;54.090;13.382;2022-12-07T03:19:13;2.70;99.90
52321;DHT22;38261;54.090;13.382;2022-12-07T03:20:38;2.70;99.90
52321;DHT22;38261;54.090;13.382;2022-12-07T03:22:08;2.70;99.90
52321;DHT22;38261;54.090;13.382;2022-12-07T03:23:33;2.70;99.90
52321;DHT22;38261;54.090;13.382;2022-12-07T03:25:00;2.70;99.90
52321;DHT22;38261;54.090;13.382;2022-12-07T03:26:28;2.70;99.90
52321;DHT22;38261;54.090;13.382;2022-12-07T03:28:06;2.70;99.90
52321;DHT22;38261;54.090;13.382;2022-12-07T03:29:34;2.70;99.90
52321;DHT22;38261;54.090;13.382;2022-12-07T03:31:01;2.70;99.90
52321;DHT22;38261;54.090;13.382;2022-12-07T03:32:45;2.60;99.90
52321;DHT22;38261;54.090;13.382;2022-12-07T03:34:30;2.60;99.90
52321;DHT22;38261;54.090;13.382;2022-12-07T03:37:35;2.60;99.90
52321;DHT22;38261;54.090;13.382;2022-12-07T03:39:04;2.60;99.90
52321;DHT22;38261;54.090;13.382;2022-12-07T03:40:47;2.50;99.90
52321;DHT22;38261;54.090;13.382;2022-12-07T03:42:12;2.50;99.90
52321;DHT22;38261;54.090;13.382;2022-12-07T03:43:34;2.50;99.90
52321;DHT22;38261;54.090;13.382;2022-12-07T03:44:58;2.60;99.90
52321;DHT22;38261;54.090;13.382;2022-12-07T03:48:21;2.60;99.90
52321;DHT22;38261;54.090;13.382;2022-12-07T03:51:42;2.60;99.90
52321;DHT22;38261;54.090;13.382;2022-12-07T03:53:35;2.60;99.90
52321;DHT22;38261;54.090;13.382;2022-12-07T03:54:56;2.60;99.90
52321;DHT22;38261;54.090;13.382;2022-12-07T03:56:21;2.60;99.90
52321;DHT22;38261;54.090;13.382;2022-12-07T03:57:45;2.50;99.90
52321;DHT22;38261;54.090;13.382;2022-12-07T03:59:10;2.50;99.90
52321;DHT22;38261;54.090;13.382;2022-12-07T04:00:33;2.50;99.90
52321;DHT22;38261;54.090;13.382;2022-12-07T04:01:58;2.50;99.90
52321;DHT22;38261;54.090;13.382;2022-12-07T04:03:23;2.50;99.90
52321;DHT22;38261;54.090;13.382;2022-12-07T04:04:45;2.60;99.90
52321;DHT22;38261;54.090;13.382;2022-12-07T04:06:08;2.60;99.90
52321;DHT22;38261;54.090;13.382;2022-12-07T04:07:30;2.60;99.90
52321;DHT22;38261;54.090;13.382;2022-12-07T04:08:52;2.60;99.90
52321;DHT22;38261;54.090;13.382;2022-12-07T04:10:14;2.60;99.90
52321;DHT22;38261;54.090;13.382;2022-12-07T04:11:36;2.60;99.90
52321;DHT22;38261;54.090;13.382;2022-12-07T04:12:58;2.60;99.90
52321;DHT22;38261;54.090;13.382;2022-12-07T04:14:20;2.60;99.90
52321;DHT22;38261;54.090;13.382;2022-12-07T04:15:42;2.60;99.90
52321;DHT22;38261;54.090;13.382;2022-12-07T04:17:05;2.60;99.90
52321;DHT22;38261;54.090;13.382;2022-12-07T04:18:27;2.60;99.90
52321;DHT22;38261;54.090;13.382;2022-12-07T04:19:49;2.60;99.90
52321;DHT22;38261;54.090;13.382;2022-12-07T04:21:11;2.60;99.90
52321;DHT22;38261;54.090;13.382;2022-12-07T04:22:33;2.60;99.90
52321;DHT22;38261;54.090;13.382;2022-12-07T04:23:55;2.60;99.90
52321;DHT22;38261;54.090;13.382;2022-12-07T04:25:17;2.60;99.90
52321;DHT22;38261;54.090;13.382;2022-12-07T04:26:40;2.60;99.90
52321;DHT22;38261;54.090;13.382;2022-12-07T04:28:03;2.60;99.90
52321;DHT22;38261;54.090;13.382;2022-12-07T04:29:25;2.60;99.90
52321;DHT22;38261;54.090;13.382;2022-12-07T04:30:47;2.60;99.90
52321;DHT22;38261;54.090;13.382;2022-12-07T04:32:09;2.60;99.90
52321;DHT22;38261;54.090;13.382;2022-12-07T04:33:32;2.60;99.90
52321;DHT22;38261;54.090;13.382;2022-12-07T04:34:54;2.60;99.90
52321;DHT22;38261;54.090;13.382;2022-12-07T04:36:17;2.60;99.90
52321;DHT22;38261;54.090;13.382;2022-12-07T04:37:41;2.50;99.90
52321;DHT22;38261;54.090;13.382;2022-12-07T04:39:05;2.60;99.90
52321;DHT22;38261;54.090;13.382;2022-12-07T04:40:28;2.50;99.90
52321;DHT22;38261;54.090;13.382;2022-12-07T04:41:50;2.50;99.90
52321;DHT22;38261;54.090;13.382;2022-12-07T04:43:12;2.50;99.90
52321;DHT22;38261;54.090;13.382;2022-12-07T04:44:34;2.50;99.90
52321;DHT22;38261;54.090;13.382;2022-12-07T04:45:56;2.50;99.90
52321;DHT22;38261;54.090;13.382;2022-12-07T04:47:19;2.50;99.90
52321;DHT22;38261;54.090;13.382;2022-12-07T04:48:41;2.50;99.90
52321;DHT22;38261;54.090;13.382;2022-12-07T04:50:03;2.50;99.90
52321;DHT22;38261;54.090;13.382;2022-12-07T04:51:28;2.50;99.90
52321;DHT22;38261;54.090;13.382;2022-12-07T04:52:50;2.40;99.90
52321;DHT22;38261;54.090;13.382;2022-12-07T04:54:14;2.40;99.90
52321;DHT22;38261;54.090;13.382;2022-12-07T04:55:36;2.50;99.90
52321;DHT22;38261;54.090;13.382;2022-12-07T04:56:59;2.50;99.90
52321;DHT22;38261;54.090;13.382;2022-12-07T04:58:21;2.50;99.90
52321;DHT22;38261;54.090;13.382;2022-12-07T04:59:43;2.50;99.90
52321;DHT22;38261;54.090;13.382;2022-12-07T05:01:07;2.40;99.90
52321;DHT22;38261;54.090;13.382;2022-12-07T05:02:29;2.40;99.90
52321;DHT22;38261;54.090;13.382;2022-12-07T05:03:51;2.40;99.90
52321;DHT22;38261;54.090;13.382;2022-12-07T05:05:13;2.40;99.90
52321;DHT22;38261;54.090;13.382;2022-12-07T05:06:35;2.30;99.90
52321;DHT22;38261;54.090;13.382;2022-12-07T05:07:58;2.30;99.90
52321;DHT22;38261;54.090;13.382;2022-12-07T05:09:20;2.30;99.90
52321;DHT22;38261;54.090;13.382;2022-12-07T05:10:42;2.30;99.90
52321;DHT22;38261;54.090;13.382;2022-12-07T05:12:04;2.30;99.90
52321;DHT22;38261;54.090;13.382;2022-12-07T05:13:26;2.30;99.90
52321;DHT22;38261;54.090;13.382;2022-12-07T05:14:48;2.20;99.90
52321;DHT22;38261;54.090;13.382;2022-12-07T05:16:10;2.20;99.90
52321;DHT22;38261;54.090;13.382;2022-12-07T05:17:32;2.30;99.90
52321;DHT22;38261;54.090;13.382;2022-12-07T05:18:55;2.20;99.90
52321;DHT22;38261;54.090;13.382;2022-12-07T05:20:17;2.20;99.90
52321;DHT22;38261;54.090;13.382;2022-12-07T05:21:39;2.20;99.90
52321;DHT22;38261;54.090;13.382;2022-12-07T05:23:01;2.10;99.90
52321;DHT22;38261;54.090;13.382;2022-12-07T05:24:24;2.10;99.90
52321;DHT22;38261;54.090;13.382;2022-12-07T05:25:46;2.10;99.90
52321;DHT22;38261;54.090;13.382;2022-12-07T05:27:08;2.10;99.90
52321;DHT22;38261;54.090;13.382;2022-12-07T05:28:30;2.10;99.90
52321;DHT22;38261;54.090;13.382;2022-12-07T05:29:53;2.00;99.90
52321;DHT22;38261;54.090;13.382;2022-12-07T05:31:15;2.10;99.90
52321;DHT22;38261;54.090;13.382;2022-12-07T05:32:37;2.10;99.90
52321;DHT22;38261;54.090;13.382;2022-12-07T05:33:59;2.10;99.90
52321;DHT22;38261;54.090;13.382;2022-12-07T05:35:21;2.00;99.90
52321;DHT22;38261;54.090;13.382;2022-12-07T05:36:43;2.00;99.90
52321;DHT22;38261;54.090;13.382;2022-12-07T05:38:05;2.10;99.90
52321;DHT22;38261;54.090;13.382;2022-12-07T05:39:27;2.10;99.90
52321;DHT22;38261;54.090;13.382;2022-12-07T05:40:49;2.10;99.90
52321;DHT22;38261;54.090;13.382;2022-12-07T05:42:11;2.10;99.90
52321;DHT22;38261;54.090;13.382;2022-12-07T05:43:33;2.10;99.90
52321;DHT22;38261;54.090;13.382;2022-12-07T05:44:56;2.10;99.90
52321;DHT22;38261;54.090;13.382;2022-12-07T05:46:18;2.20;99.90
52321;DHT22;38261;54.090;13.382;2022-12-07T05:47:40;2.20;99.90
52321;DHT22;38261;54.090;13.382;2022-12-07T05:49:02;2.20;99.90
52321;DHT22;38261;54.090;13.382;2022-12-07T05:50:24;2.20;99.90
52321;DHT22;38261;54.090;13.382;2022-12-07T05:51:47;2.20;99.90
52321;DHT22;38261;54.090;13.382;2022-12-07T05:53:09;2.20;99.90
52321;DHT22;38261;54.090;13.382;2022-12-07T05:54:32;2.20;99.90
52321;DHT22;38261;54.090;13.382;2022-12-07T05:55:54;2.20;99.90
52321;DHT22;38261;54.090;13.382;2022-12-07T05:57:16;2.20;99.90
52321;DHT22;38261;54.090;13.382;2022-12-07T05:58:38;2.20;99.90
52321;DHT22;38261;54.090;13.382;2022-12-07T06:00:19;2.20;99.90
52321;DHT22;38261;54.090;13.382;2022-12-07T06:01:41;2.30;99.90
52321;DHT22;38261;54.090;13.382;2022-12-07T06:03:03;2.30;99.90
52321;DHT22;38261;54.090;13.382;2022-12-07T06:04:28;2.30;99.90
52321;DHT22;38261;54.090;13.382;2022-12-07T06:05:51;2.30;99.90
52321;DHT22;38261;54.090;13.382;2022-12-07T06:07:15;2.30;99.90
52321;DHT22;38261;54.090;13.382;2022-12-07T06:08:38;2.30;99.90
52321;DHT22;38261;54.090;13.382;2022-12-07T06:10:00;2.30;99.90
52321;DHT22;38261;54.090;13.382;2022-12-07T06:11:23;2.30;99.90
52321;DHT22;38261;54.090;13.382;2022-12-07T06:13:03;2.30;99.90
52321;DHT22;38261;54.090;13.382;2022-12-07T06:14:25;2.20;99.90
52321;DHT22;38261;54.090;13.382;2022-12-07T06:15:48;2.30;99.90
52321;DHT22;38261;54.090;13.382;2022-12-07T06:17:11;2.30;99.90
52321;DHT22;38261;54.090;13.382;2022-12-07T06:18:33;2.30;99.90
52321;DHT22;38261;54.090;13.382;2022-12-07T06:19:56;2.30;99.90
52321;DHT22;38261;54.090;13.382;2022-12-07T06:21:18;2.30;99.90
52321;DHT22;38261;54.090;13.382;2022-12-07T06:22:40;2.30;99.90
52321;DHT22;38261;54.090;13.382;2022-12-07T06:24:02;2.30;99.90
52321;DHT22;38261;54.090;13.382;2022-12-07T06:25:24;2.30;99.90
52321;DHT22;38261;54.090;13.382;2022-12-07T06:26:46;2.30;99.90
52321;DHT22;38261;54.090;13.382;2022-12-07T06:28:08;2.30;99.90
52321;DHT22;38261;54.090;13.382;2022-12-07T06:29:30;2.30;99.90
52321;DHT22;38261;54.090;13.382;2022-12-07T06:31:00;2.30;99.90
52321;DHT22;38261;54.090;13.382;2022-12-07T06:32:22;2.30;99.90
52321;DHT22;38261;54.090;13.382;2022-12-07T06:33:44;2.30;99.90
52321;DHT22;38261;54.090;13.382;2022-12-07T06:35:07;2.20;99.90
52321;DHT22;38261;54.090;13.382;2022-12-07T06:36:29;2.20;99.90
52321;DHT22;38261;54.090;13.382;2022-12-07T06:37:52;2.20;99.90
52321;DHT22;38261;54.090;13.382;2022-12-07T06:39:14;2.20;99.90
52321;DHT22;38261;54.090;13.382;2022-12-07T06:40:36;2.20;99.90
52321;DHT22;38261;54.090;13.382;2022-12-07T06:41:58;2.20;99.90
52321;DHT22;38261;54.090;13.382;2022-12-07T06:43:20;2.20;99.90
52321;DHT22;38261;54.090;13.382;2022-12-07T06:44:42;2.20;99.90
52321;DHT22;38261;54.090;13.382;2022-12-07T06:46:04;2.20;99.90
52321;DHT22;38261;54.090;13.382;2022-12-07T06:47:26;2.20;99.90
52321;DHT22;38261;54.090;13.382;2022-12-07T06:49:07;2.20;99.90
52321;DHT22;38261;54.090;13.382;2022-12-07T06:50:29;2.10;99.90
52321;DHT22;38261;54.090;13.382;2022-12-07T06:51:51;2.10;99.90
52321;DHT22;38261;54.090;13.382;2022-12-07T06:53:13;2.10;99.90
52321;DHT22;38261;54.090;13.382;2022-12-07T06:54:36;2.10;99.90
52321;DHT22;38261;54.090;13.382;2022-12-07T06:55:58;2.10;99.90
52321;DHT22;38261;54.090;13.382;2022-12-07T06:57:20;2.10;99.90
52321;DHT22;38261;54.090;13.382;2022-12-07T06:58:42;2.00;99.90
52321;DHT22;38261;54.090;13.382;2022-12-07T07:00:05;2.00;99.90
52321;DHT22;38261;54.090;13.382;2022-12-07T07:01:28;2.00;99.90
52321;DHT22;38261;54.090;13.382;2022-12-07T07:02:50;2.00;99.90
52321;DHT22;38261;54.090;13.382;2022-12-07T07:04:12;1.90;99.90
52321;DHT22;38261;54.090;13.382;2022-12-07T07:05:35;1.90;99.90
52321;DHT22;38261;54.090;13.382;2022-12-07T07:06:57;2.00;99.90
52321;DHT22;38261;54.090;13.382;2022-12-07T07:08:21;1.90;99.90
52321;DHT22;38261;54.090;13.382;2022-12-07T07:09:44;1.90;99.90
52321;DHT22;38261;54.090;13.382;2022-12-07T07:11:07;1.90;99.90
52321;DHT22;38261;54.090;13.382;2022-12-07T07:12:30;1.80;99.90
52321;DHT22;38261;54.090;13.382;2022-12-07T07:13:52;1.70;99.90
52321;DHT22;38261;54.090;13.382;2022-12-07T07:15:14;1.70;99.90
52321;DHT22;38261;54.090;13.382;2022-12-07T07:16:36;1.70;99.90
52321;DHT22;38261;54.090;13.382;2022-12-07T07:17:59;1.80;99.90
52321;DHT22;38261;54.090;13.382;2022-12-07T07:19:28;1.80;99.90
52321;DHT22;38261;54.090;13.382;2022-12-07T07:20:51;1.70;99.90
52321;DHT22;38261;54.090;13.382;2022-12-07T07:22:13;1.70;99.90
52321;DHT22;38261;54.090;13.382;2022-12-07T07:23:35;1.80;99.90
52321;DHT22;38261;54.090;13.382;2022-12-07T07:24:57;1.80;99.90
52321;DHT22;38261;54.090;13.382;2022-12-07T07:26:19;1.80;99.90
52321;DHT22;38261;54.090;13.382;2022-12-07T07:27:44;1.80;99.90
52321;DHT22;38261;54.090;13.382;2022-12-07T07:29:06;1.80;99.90
52321;DHT22;38261;54.090;13.382;2022-12-07T07:30:28;1.80;99.90
52321;DHT22;38261;54.090;13.382;2022-12-07T07:31:50;1.70;99.90
52321;DHT22;38261;54.090;13.382;2022-12-07T07:33:13;1.70;99.90
52321;DHT22;38261;54.090;13.382;2022-12-07T07:34:35;1.70;99.90
52321;DHT22;38261;54.090;13.382;2022-12-07T07:35:57;1.70;99.90
52321;DHT22;38261;54.090;13.382;2022-12-07T07:37:19;1.80;99.90
52321;DHT22;38261;54.090;13.382;2022-12-07T07:38:43;1.80;99.90
52321;DHT22;38261;54.090;13.382;2022-12-07T07:40:06;1.80;99.90
52321;DHT22;38261;54.090;13.382;2022-12-07T07:41:28;1.80;99.90
52321;DHT22;38261;54.090;13.382;2022-12-07T07:42:52;1.90;99.90
52321;DHT22;38261;54.090;13.382;2022-12-07T07:44:14;1.90;99.90
52321;DHT22;38261;54.090;13.382;2022-12-07T07:45:36;2.00;99.90
52321;DHT22;38261;54.090;13.382;2022-12-07T07:46:58;2.00;99.90
52321;DHT22;38261;54.090;13.382;2022-12-07T07:48:20;2.00;99.90
52321;DHT22;38261;54.090;13.382;2022-12-07T07:49:44;2.00;99.90
52321;DHT22;38261;54.090;13.382;2022-12-07T07:51:09;2.10;99.90
52321;DHT22;38261;54.090;13.382;2022-12-07T07:52:31;2.10;99.90
52321;DHT22;38261;54.090;13.382;2022-12-07T07:53:54;2.20;99.90
52321;DHT22;38261;54.090;13.382;2022-12-07T07:55:16;2.20;99.90
52321;DHT22;38261;54.090;13.382;2022-12-07T07:56:38;2.20;99.90
52321;DHT22;38261;54.090;13.382;2022-12-07T07:58:00;2.30;99.90
52321;DHT22;38261;54.090;13.382;2022-12-07T07:59:22;2.30;99.90
52321;DHT22;38261;54.090;13.382;2022-12-07T08:00:44;2.30;99.90
52321;DHT22;38261;54.090;13.382;2022-12-07T08:02:13;2.30;99.90
52321;DHT22;38261;54.090;13.382;2022-12-07T08:03:36;2.30;99.90
52321;DHT22;38261;54.090;13.382;2022-12-07T08:04:58;2.30;99.90
52321;DHT22;38261;54.090;13.382;2022-12-07T08:06:20;2.30;99.90
52321;DHT22;38261;54.090;13.382;2022-12-07T08:07:42;2.30;99.90
52321;DHT22;38261;54.090;13.382;2022-12-07T08:09:05;2.30;99.90
52321;DHT22;38261;54.090;13.382;2022-12-07T08:10:28;2.30;99.90
52321;DHT22;38261;54.090;13.382;2022-12-07T08:11:50;2.30;99.90
52321;DHT22;38261;54.090;13.382;2022-12-07T08:13:13;2.30;99.90
52321;DHT22;38261;54.090;13.382;2022-12-07T08:14:36;2.30;99.90
52321;DHT22;38261;54.090;13.382;2022-12-07T08:16:06;2.30;99.90
52321;DHT22;38261;54.090;13.382;2022-12-07T08:17:29;2.30;99.90
52321;DHT22;38261;54.090;13.382;2022-12-07T08:18:51;2.30;99.90
52321;DHT22;38261;54.090;13.382;2022-12-07T08:20:13;2.40;99.90
52321;DHT22;38261;54.090;13.382;2022-12-07T08:21:35;2.40;99.90
52321;DHT22;38261;54.090;13.382;2022-12-07T08:22:59;2.40;99.90
52321;DHT22;38261;54.090;13.382;2022-12-07T08:24:21;2.40;99.90
52321;DHT22;38261;54.090;13.382;2022-12-07T08:25:43;2.40;99.90
52321;DHT22;38261;54.090;13.382;2022-12-07T08:27:05;2.40;99.90
52321;DHT22;38261;54.090;13.382;2022-12-07T08:28:28;2.40;99.90
52321;DHT22;38261;54.090;13.382;2022-12-07T08:29:50;2.40;99.90
52321;DHT22;38261;54.090;13.382;2022-12-07T08:31:16;2.40;99.90
52321;DHT22;38261;54.090;13.382;2022-12-07T08:32:38;2.40;99.90
52321;DHT22;38261;54.090;13.382;2022-12-07T08:34:01;2.40;99.90
52321;DHT22;38261;54.090;13.382;2022-12-07T08:35:23;2.40;99.90
52321;DHT22;38261;54.090;13.382;2022-12-07T08:36:45;2.50;99.90
52321;DHT22;38261;54.090;13.382;2022-12-07T08:38:07;2.50;99.90
52321;DHT22;38261;54.090;13.382;2022-12-07T08:39:29;2.50;99.90
52321;DHT22;38261;54.090;13.382;2022-12-07T08:40:57;2.50;99.90
52321;DHT22;38261;54.090;13.382;2022-12-07T08:42:20;2.50;99.90
52321;DHT22;38261;54.090;13.382;2022-12-07T08:43:44;2.50;99.90
52321;DHT22;38261;54.090;13.382;2022-12-07T08:45:12;2.50;99.90
52321;DHT22;38261;54.090;13.382;2022-12-07T08:47:10;2.50;99.90
52321;DHT22;38261;54.090;13.382;2022-12-07T08:48:25;2.50;99.90
52321;DHT22;38261;54.090;13.382;2022-12-07T08:49:50;2.50;99.90
52321;DHT22;38261;54.090;13.382;2022-12-07T08:51:14;2.50;99.90
52321;DHT22;38261;54.090;13.382;2022-12-07T08:52:36;2.50;99.90
52321;DHT22;38261;54.090;13.382;2022-12-07T08:54:01;2.50;99.90
52321;DHT22;38261;54.090;13.382;2022-12-07T08:55:26;2.60;99.90
52321;DHT22;38261;54.090;13.382;2022-12-07T08:56:50;2.60;99.90
52321;DHT22;38261;54.090;13.382;2022-12-07T08:58:19;2.60;99.90
52321;DHT22;38261;54.090;13.382;2022-12-07T08:59:41;2.70;99.90
52321;DHT22;38261;54.090;13.382;2022-12-07T09:01:04;2.70;99.90
52321;DHT22;38261;54.090;13.382;2022-12-07T09:02:26;2.70;99.90
52321;DHT22;38261;54.090;13.382;2022-12-07T09:03:48;2.70;99.90
52321;DHT22;38261;54.090;13.382;2022-12-07T09:05:12;2.80;99.90
52321;DHT22;38261;54.090;13.382;2022-12-07T09:06:38;2.80;99.90
52321;DHT22;38261;54.090;13.382;2022-12-07T09:08:01;2.80;99.90
52321;DHT22;38261;54.090;13.382;2022-12-07T09:09:23;2.80;99.90
52321;DHT22;38261;54.090;13.382;2022-12-07T09:10:45;2.80;99.90
52321;DHT22;38261;54.090;13.382;2022-12-07T09:12:08;2.90;99.90
52321;DHT22;38261;54.090;13.382;2022-12-07T09:13:30;2.90;99.90
52321;DHT22;38261;54.090;13.382;2022-12-07T09:14:52;2.90;99.90
52321;DHT22;38261;54.090;13.382;2022-12-07T09:16:15;3.00;99.90
52321;DHT22;38261;54.090;13.382;2022-12-07T09:17:37;3.00;99.90
52321;DHT22;38261;54.090;13.382;2022-12-07T09:18:59;2.90;99.90
52321;DHT22;38261;54.090;13.382;2022-12-07T09:20:21;2.90;99.90
52321;DHT22;38261;54.090;13.382;2022-12-07T09:21:49;2.90;99.90
52321;DHT22;38261;54.090;13.382;2022-12-07T09:23:11;2.80;99.90
52321;DHT22;38261;54.090;13.382;2022-12-07T09:24:33;2.80;99.90